Kankakee, IL (60901)

10:49 PM CST on February 10, 2016 (GMT -0600)
East Bradley | | Change Station
CLOSE
Current Station
Personal Weather Station
Location: Bradley, IL
Elevation: 650 ft
Nearby Weather Stations

Elev 650 ft 41.14 °N, 87.85 °W | Updated 6 minutes ago

Clear
Clear
13.1 °F
Feels Like 13 °F
N
1.1
Wind Variable Wind from ESE

Today
High -- | Low -- °F
--% Chance of Precip.
Yesterday
High -- | Low -- °F
Precip. -- in
Pressure 30.17 in
Visibility 10.0 miles
Clouds Mostly Cloudy 12000 ft
Windchill 13 °F
Dew Point 6 °F
Humidity 73%
Rainfall 0.00 in
Snow Depth Not available.
6:52 AM 5:18 PM
Waxing Crescent, 9% visible
METAR KIKK 110435Z AUTO 34005KT 10SM BKN120 M10/M15 A3017 RMK AO2 T10961151
Pressure 30.17 in
Visibility 10.0 miles
Clouds Mostly Cloudy 12000 ft
Windchill 13 °F
Dew Point 6 °F
Humidity 73%
Rainfall 0.00 in
Snow Depth Not available.
6:52 AM 5:18 PM
Waxing Crescent, 9% visible
METAR KIKK 110435Z AUTO 34005KT 10SM BKN120 M10/M15 A3017 RMK AO2 T10961151

10-Day Weather Forecast

Almanac

Astronomy

Feb. 10, 2016 Rise Set
Actual Time
Civil Twilight
Nautical Twilight
Astronomical Twilight
Moon
Length of Visible Light
Length of Day
Tomorrow will be .
, % of the Moon is Illuminated

Today's Extremes

State Highs State Lows

Community

WunderPhotos

Upload Photos

1,892,015 photos uploaded!

WunderBlog® & News

Nearby

Air Quality

  Air Quality AQ Index Pollutant
Not available.

Snow Depth

Station Depth Elevation

Earthquake Activity

City Distance Mag. Time & Date
Minimum magnitude displayed is 2.5.

Coastal Water Temperatures

Place Temperature

Stations

Nearby Weather Stations

Station Location Temp. Windchill Dew Point Humidity Wind Precip. Elev Updated Type
                   

Watches & Warnings

There are currently no watches in effect.